sensor_id;sensor_type;location;lat;lon;timestamp;temperature;humidity
61016;DHT22;46902;52.920;6.536;2023-02-05T00:02:01;5.70;99.90
61016;DHT22;46902;52.920;6.536;2023-02-05T00:04:26;5.70;99.90
61016;DHT22;46902;52.920;6.536;2023-02-05T00:06:52;5.70;99.90
61016;DHT22;46902;52.920;6.536;2023-02-05T00:09:18;5.70;99.90
61016;DHT22;46902;52.920;6.536;2023-02-05T00:11:43;5.80;99.90
61016;DHT22;46902;52.920;6.536;2023-02-05T00:14:09;5.70;99.90
61016;DHT22;46902;52.920;6.536;2023-02-05T00:16:35;5.70;99.90
61016;DHT22;46902;52.920;6.536;2023-02-05T00:19:01;5.70;99.90
61016;DHT22;46902;52.920;6.536;2023-02-05T00:21:26;5.70;99.90
61016;DHT22;46902;52.920;6.536;2023-02-05T00:23:52;5.60;99.90
61016;DHT22;46902;52.920;6.536;2023-02-05T00:26:18;5.60;99.90
61016;DHT22;46902;52.920;6.536;2023-02-05T00:28:44;5.60;99.90
61016;DHT22;46902;52.920;6.536;2023-02-05T00:31:13;5.60;99.90
61016;DHT22;46902;52.920;6.536;2023-02-05T00:33:39;5.60;99.90
61016;DHT22;46902;52.920;6.536;2023-02-05T00:36:05;5.70;99.90
61016;DHT22;46902;52.920;6.536;2023-02-05T00:38:31;5.70;99.90
61016;DHT22;46902;52.920;6.536;2023-02-05T00:40:57;5.70;99.90
61016;DHT22;46902;52.920;6.536;2023-02-05T00:43:22;5.70;99.90
61016;DHT22;46902;52.920;6.536;2023-02-05T00:45:48;5.60;99.90
61016;DHT22;46902;52.920;6.536;2023-02-05T00:48:14;5.60;99.90
61016;DHT22;46902;52.920;6.536;2023-02-05T00:50:39;5.60;99.90
61016;DHT22;46902;52.920;6.536;2023-02-05T00:53:05;5.60;99.90
61016;DHT22;46902;52.920;6.536;2023-02-05T00:55:31;5.60;99.90
61016;DHT22;46902;52.920;6.536;2023-02-05T00:57:56;5.60;99.90
61016;DHT22;46902;52.920;6.536;2023-02-05T01:00:22;5.60;99.90
61016;DHT22;46902;52.920;6.536;2023-02-05T01:02:49;5.60;99.90
61016;DHT22;46902;52.920;6.536;2023-02-05T01:05:15;5.70;99.90
61016;DHT22;46902;52.920;6.536;2023-02-05T01:07:40;5.70;99.90
61016;DHT22;46902;52.920;6.536;2023-02-05T01:10:06;5.70;99.90
61016;DHT22;46902;52.920;6.536;2023-02-05T01:12:32;5.80;99.90
61016;DHT22;46902;52.920;6.536;2023-02-05T01:14:59;5.80;99.90
61016;DHT22;46902;52.920;6.536;2023-02-05T01:17:25;5.80;99.90
61016;DHT22;46902;52.920;6.536;2023-02-05T01:19:51;5.80;99.90
61016;DHT22;46902;52.920;6.536;2023-02-05T01:22:17;5.80;99.90
61016;DHT22;46902;52.920;6.536;2023-02-05T01:24:43;5.80;99.90
61016;DHT22;46902;52.920;6.536;2023-02-05T01:27:08;5.80;99.90
61016;DHT22;46902;52.920;6.536;2023-02-05T01:29:34;5.70;99.90
61016;DHT22;46902;52.920;6.536;2023-02-05T01:31:59;5.80;99.90
61016;DHT22;46902;52.920;6.536;2023-02-05T01:34:25;5.80;99.90
61016;DHT22;46902;52.920;6.536;2023-02-05T01:36:51;5.80;99.90
61016;DHT22;46902;52.920;6.536;2023-02-05T01:39:16;5.70;99.90
61016;DHT22;46902;52.920;6.536;2023-02-05T01:41:42;5.80;99.90
61016;DHT22;46902;52.920;6.536;2023-02-05T01:44:14;5.80;99.90
61016;DHT22;46902;52.920;6.536;2023-02-05T01:46:41;5.80;99.90
61016;DHT22;46902;52.920;6.536;2023-02-05T01:49:11;5.80;99.90
61016;DHT22;46902;52.920;6.536;2023-02-05T01:51:38;5.80;99.90
61016;DHT22;46902;52.920;6.536;2023-02-05T01:54:05;5.70;99.90
61016;DHT22;46902;52.920;6.536;2023-02-05T01:56:35;5.70;99.90
61016;DHT22;46902;52.920;6.536;2023-02-05T01:59:09;5.60;99.90
61016;DHT22;46902;52.920;6.536;2023-02-05T02:01:36;5.60;99.90
61016;DHT22;46902;52.920;6.536;2023-02-05T02:04:03;5.60;99.90
61016;DHT22;46902;52.920;6.536;2023-02-05T02:06:31;5.60;99.90
61016;DHT22;46902;52.920;6.536;2023-02-05T02:08:57;5.60;99.90
61016;DHT22;46902;52.920;6.536;2023-02-05T02:11:23;5.60;99.90
61016;DHT22;46902;52.920;6.536;2023-02-05T02:13:52;5.60;99.90
61016;DHT22;46902;52.920;6.536;2023-02-05T02:16:19;5.60;99.90
61016;DHT22;46902;52.920;6.536;2023-02-05T02:18:45;5.60;99.90
61016;DHT22;46902;52.920;6.536;2023-02-05T02:29:38;5.60;99.90
61016;DHT22;46902;52.920;6.536;2023-02-05T02:32:23;5.60;99.90
61016;DHT22;46902;52.920;6.536;2023-02-05T02:35:16;5.60;99.90
61016;DHT22;46902;52.920;6.536;2023-02-05T02:37:51;5.60;99.90
61016;DHT22;46902;52.920;6.536;2023-02-05T02:40:33;5.70;99.90
61016;DHT22;46902;52.920;6.536;2023-02-05T02:43:13;5.70;99.90
61016;DHT22;46902;52.920;6.536;2023-02-05T02:45:47;5.70;99.90
61016;DHT22;46902;52.920;6.536;2023-02-05T02:48:14;5.80;99.90
61016;DHT22;46902;52.920;6.536;2023-02-05T02:50:44;5.80;99.90
61016;DHT22;46902;52.920;6.536;2023-02-05T02:53:15;5.80;99.90
61016;DHT22;46902;52.920;6.536;2023-02-05T02:55:42;5.90;99.90
61016;DHT22;46902;52.920;6.536;2023-02-05T02:58:14;6.00;99.90
61016;DHT22;46902;52.920;6.536;2023-02-05T03:00:43;6.10;99.90
61016;DHT22;46902;52.920;6.536;2023-02-05T03:03:10;6.00;99.90
61016;DHT22;46902;52.920;6.536;2023-02-05T03:05:38;6.10;99.90
61016;DHT22;46902;52.920;6.536;2023-02-05T03:08:18;6.20;99.90
61016;DHT22;46902;52.920;6.536;2023-02-05T03:10:54;6.20;99.90
61016;DHT22;46902;52.920;6.536;2023-02-05T03:13:21;6.30;99.90
61016;DHT22;46902;52.920;6.536;2023-02-05T03:15:47;6.20;99.90
61016;DHT22;46902;52.920;6.536;2023-02-05T03:18:13;6.30;99.90
61016;DHT22;46902;52.920;6.536;2023-02-05T03:20:48;6.30;99.90
61016;DHT22;46902;52.920;6.536;2023-02-05T03:23:15;6.30;99.90
61016;DHT22;46902;52.920;6.536;2023-02-05T03:25:41;6.30;99.90
61016;DHT22;46902;52.920;6.536;2023-02-05T03:28:06;6.30;99.90
61016;DHT22;46902;52.920;6.536;2023-02-05T03:31:02;6.30;99.90
61016;DHT22;46902;52.920;6.536;2023-02-05T03:33:45;6.40;99.90
61016;DHT22;46902;52.920;6.536;2023-02-05T03:41:52;6.30;99.90
61016;DHT22;46902;52.920;6.536;2023-02-05T03:47:01;6.40;99.90
61016;DHT22;46902;52.920;6.536;2023-02-05T03:49:49;6.30;99.90
61016;DHT22;46902;52.920;6.536;2023-02-05T03:52:23;6.40;99.90
61016;DHT22;46902;52.920;6.536;2023-02-05T03:55:11;6.30;99.90
61016;DHT22;46902;52.920;6.536;2023-02-05T03:57:55;6.40;99.90
61016;DHT22;46902;52.920;6.536;2023-02-05T04:00:24;6.40;99.90
61016;DHT22;46902;52.920;6.536;2023-02-05T04:02:49;6.40;99.90
61016;DHT22;46902;52.920;6.536;2023-02-05T04:05:15;6.40;99.90
61016;DHT22;46902;52.920;6.536;2023-02-05T04:07:41;6.40;99.90
61016;DHT22;46902;52.920;6.536;2023-02-05T04:10:07;6.40;99.90
61016;DHT22;46902;52.920;6.536;2023-02-05T04:12:33;6.40;99.90
61016;DHT22;46902;52.920;6.536;2023-02-05T04:14:58;6.40;99.90
61016;DHT22;46902;52.920;6.536;2023-02-05T04:17:24;6.40;99.90
61016;DHT22;46902;52.920;6.536;2023-02-05T04:19:49;6.40;99.90
61016;DHT22;46902;52.920;6.536;2023-02-05T04:22:15;6.40;99.90
61016;DHT22;46902;52.920;6.536;2023-02-05T04:24:40;6.40;99.90
61016;DHT22;46902;52.920;6.536;2023-02-05T04:27:06;6.50;99.90
61016;DHT22;46902;52.920;6.536;2023-02-05T04:29:32;6.50;99.90
61016;DHT22;46902;52.920;6.536;2023-02-05T04:31:57;6.40;99.90
61016;DHT22;46902;52.920;6.536;2023-02-05T04:34:23;6.50;99.90
61016;DHT22;46902;52.920;6.536;2023-02-05T04:36:48;6.50;99.90
61016;DHT22;46902;52.920;6.536;2023-02-05T04:39:14;6.50;99.90
61016;DHT22;46902;52.920;6.536;2023-02-05T04:41:39;6.50;99.90
61016;DHT22;46902;52.920;6.536;2023-02-05T04:44:05;6.50;99.90
61016;DHT22;46902;52.920;6.536;2023-02-05T04:46:31;6.50;99.90
61016;DHT22;46902;52.920;6.536;2023-02-05T04:48:56;6.50;99.90
61016;DHT22;46902;52.920;6.536;2023-02-05T04:51:22;6.60;99.90
61016;DHT22;46902;52.920;6.536;2023-02-05T04:53:48;6.50;99.90
61016;DHT22;46902;52.920;6.536;2023-02-05T04:56:15;6.60;99.90
61016;DHT22;46902;52.920;6.536;2023-02-05T04:58:41;6.60;99.90
61016;DHT22;46902;52.920;6.536;2023-02-05T05:01:16;6.60;99.90
61016;DHT22;46902;52.920;6.536;2023-02-05T05:03:42;6.70;99.90
61016;DHT22;46902;52.920;6.536;2023-02-05T05:06:08;6.70;99.90
61016;DHT22;46902;52.920;6.536;2023-02-05T05:08:33;6.70;99.90
61016;DHT22;46902;52.920;6.536;2023-02-05T05:10:59;6.80;99.90
61016;DHT22;46902;52.920;6.536;2023-02-05T05:13:32;6.80;99.90
61016;DHT22;46902;52.920;6.536;2023-02-05T05:15:57;6.80;99.90
61016;DHT22;46902;52.920;6.536;2023-02-05T05:18:23;6.70;99.90
61016;DHT22;46902;52.920;6.536;2023-02-05T05:20:49;6.80;99.90
61016;DHT22;46902;52.920;6.536;2023-02-05T05:23:14;6.80;99.90
61016;DHT22;46902;52.920;6.536;2023-02-05T05:25:41;6.80;99.90
61016;DHT22;46902;52.920;6.536;2023-02-05T05:28:07;6.80;99.90
61016;DHT22;46902;52.920;6.536;2023-02-05T05:30:33;6.90;99.90
61016;DHT22;46902;52.920;6.536;2023-02-05T05:32:58;6.90;99.90
61016;DHT22;46902;52.920;6.536;2023-02-05T05:35:24;6.80;99.90
61016;DHT22;46902;52.920;6.536;2023-02-05T05:37:49;6.90;99.90
61016;DHT22;46902;52.920;6.536;2023-02-05T05:40:15;6.90;99.90
61016;DHT22;46902;52.920;6.536;2023-02-05T05:42:59;6.90;99.90
61016;DHT22;46902;52.920;6.536;2023-02-05T05:45:43;6.90;99.90
61016;DHT22;46902;52.920;6.536;2023-02-05T05:48:09;6.90;99.90
61016;DHT22;46902;52.920;6.536;2023-02-05T05:50:34;6.90;99.90
61016;DHT22;46902;52.920;6.536;2023-02-05T05:53:00;6.80;99.90
61016;DHT22;46902;52.920;6.536;2023-02-05T05:55:26;6.90;99.90
61016;DHT22;46902;52.920;6.536;2023-02-05T05:57:51;6.90;99.90
61016;DHT22;46902;52.920;6.536;2023-02-05T06:00:17;6.80;99.90
61016;DHT22;46902;52.920;6.536;2023-02-05T06:02:43;6.70;99.90
61016;DHT22;46902;52.920;6.536;2023-02-05T06:05:09;6.70;99.90
61016;DHT22;46902;52.920;6.536;2023-02-05T06:07:35;6.70;99.90
61016;DHT22;46902;52.920;6.536;2023-02-05T06:10:01;6.60;99.90
61016;DHT22;46902;52.920;6.536;2023-02-05T06:12:27;6.60;99.90
61016;DHT22;46902;52.920;6.536;2023-02-05T06:14:52;6.60;99.90
61016;DHT22;46902;52.920;6.536;2023-02-05T06:17:18;6.60;99.90
61016;DHT22;46902;52.920;6.536;2023-02-05T06:19:43;6.50;99.90
61016;DHT22;46902;52.920;6.536;2023-02-05T06:22:09;6.50;99.90
61016;DHT22;46902;52.920;6.536;2023-02-05T06:24:35;6.50;99.90
61016;DHT22;46902;52.920;6.536;2023-02-05T06:27:00;6.50;99.90
61016;DHT22;46902;52.920;6.536;2023-02-05T06:29:26;6.40;99.90
61016;DHT22;46902;52.920;6.536;2023-02-05T06:31:51;6.40;99.90
61016;DHT22;46902;52.920;6.536;2023-02-05T06:34:17;6.40;99.90
61016;DHT22;46902;52.920;6.536;2023-02-05T06:36:43;6.40;99.90
61016;DHT22;46902;52.920;6.536;2023-02-05T06:39:08;6.40;99.90
61016;DHT22;46902;52.920;6.536;2023-02-05T06:41:34;6.30;99.90
61016;DHT22;46902;52.920;6.536;2023-02-05T06:43:59;6.40;99.90
61016;DHT22;46902;52.920;6.536;2023-02-05T06:46:25;6.30;99.90
61016;DHT22;46902;52.920;6.536;2023-02-05T06:48:50;6.40;99.90
61016;DHT22;46902;52.920;6.536;2023-02-05T06:51:16;6.30;99.90
61016;DHT22;46902;52.920;6.536;2023-02-05T06:53:42;6.30;99.90
61016;DHT22;46902;52.920;6.536;2023-02-05T06:56:08;6.30;99.90
61016;DHT22;46902;52.920;6.536;2023-02-05T06:58:33;6.30;99.90
61016;DHT22;46902;52.920;6.536;2023-02-05T07:01:00;6.30;99.90
61016;DHT22;46902;52.920;6.536;2023-02-05T07:03:25;6.30;99.90
61016;DHT22;46902;52.920;6.536;2023-02-05T07:05:51;6.20;99.90
61016;DHT22;46902;52.920;6.536;2023-02-05T07:08:17;6.20;99.90
61016;DHT22;46902;52.920;6.536;2023-02-05T07:10:42;6.20;99.90
61016;DHT22;46902;52.920;6.536;2023-02-05T07:13:08;6.20;99.90
61016;DHT22;46902;52.920;6.536;2023-02-05T07:15:37;6.20;99.90
61016;DHT22;46902;52.920;6.536;2023-02-05T07:18:03;6.30;99.90
61016;DHT22;46902;52.920;6.536;2023-02-05T07:20:30;6.20;99.90
61016;DHT22;46902;52.920;6.536;2023-02-05T07:22:55;6.20;99.90
61016;DHT22;46902;52.920;6.536;2023-02-05T07:25:21;6.20;99.90
61016;DHT22;46902;52.920;6.536;2023-02-05T07:27:47;6.30;99.90
61016;DHT22;46902;52.920;6.536;2023-02-05T07:30:13;6.20;99.90
61016;DHT22;46902;52.920;6.536;2023-02-05T07:32:39;6.20;99.90
61016;DHT22;46902;52.920;6.536;2023-02-05T07:35:05;6.30;99.90
61016;DHT22;46902;52.920;6.536;2023-02-05T07:37:30;6.30;99.90
61016;DHT22;46902;52.920;6.536;2023-02-05T07:39:56;6.30;99.90
61016;DHT22;46902;52.920;6.536;2023-02-05T07:42:22;6.30;99.90
61016;DHT22;46902;52.920;6.536;2023-02-05T07:44:47;6.30;99.90
61016;DHT22;46902;52.920;6.536;2023-02-05T07:47:13;6.30;99.90
61016;DHT22;46902;52.920;6.536;2023-02-05T07:49:38;6.20;99.90
61016;DHT22;46902;52.920;6.536;2023-02-05T07:52:05;6.30;99.90
61016;DHT22;46902;52.920;6.536;2023-02-05T07:54:31;6.30;99.90
61016;DHT22;46902;52.920;6.536;2023-02-05T07:56:56;6.30;99.90
61016;DHT22;46902;52.920;6.536;2023-02-05T07:59:24;6.30;99.90
61016;DHT22;46902;52.920;6.536;2023-02-05T08:01:50;6.40;99.90
61016;DHT22;46902;52.920;6.536;2023-02-05T08:04:15;6.40;99.90
61016;DHT22;46902;52.920;6.536;2023-02-05T08:06:41;6.40;99.90
61016;DHT22;46902;52.920;6.536;2023-02-05T08:09:07;6.40;99.90
61016;DHT22;46902;52.920;6.536;2023-02-05T08:11:33;6.40;99.90
61016;DHT22;46902;52.920;6.536;2023-02-05T08:14:00;6.40;99.90
61016;DHT22;46902;52.920;6.536;2023-02-05T08:16:26;6.40;99.90
61016;DHT22;46902;52.920;6.536;2023-02-05T08:18:51;6.40;99.90
61016;DHT22;46902;52.920;6.536;2023-02-05T08:21:17;6.40;99.90
61016;DHT22;46902;52.920;6.536;2023-02-05T08:23:44;6.40;99.90
61016;DHT22;46902;52.920;6.536;2023-02-05T08:26:09;6.40;99.90
61016;DHT22;46902;52.920;6.536;2023-02-05T08:28:35;6.40;99.90
61016;DHT22;46902;52.920;6.536;2023-02-05T08:31:07;6.50;99.90
61016;DHT22;46902;52.920;6.536;2023-02-05T08:33:32;6.50;99.90
61016;DHT22;46902;52.920;6.536;2023-02-05T08:35:58;6.40;99.90
61016;DHT22;46902;52.920;6.536;2023-02-05T08:38:24;6.50;99.90
61016;DHT22;46902;52.920;6.536;2023-02-05T08:40:50;6.40;99.90
61016;DHT22;46902;52.920;6.536;2023-02-05T08:43:15;6.40;99.90
61016;DHT22;46902;52.920;6.536;2023-02-05T08:45:45;6.50;99.90
61016;DHT22;46902;52.920;6.536;2023-02-05T08:48:11;6.50;99.90
61016;DHT22;46902;52.920;6.536;2023-02-05T08:50:36;6.50;99.90
61016;DHT22;46902;52.920;6.536;2023-02-05T08:53:02;6.60;99.90
61016;DHT22;46902;52.920;6.536;2023-02-05T08:55:27;6.60;99.90
61016;DHT22;46902;52.920;6.536;2023-02-05T08:57:53;6.60;99.90
61016;DHT22;46902;52.920;6.536;2023-02-05T09:00:20;6.60;99.90
61016;DHT22;46902;52.920;6.536;2023-02-05T09:02:45;6.60;99.90
61016;DHT22;46902;52.920;6.536;2023-02-05T09:05:11;6.60;99.90
61016;DHT22;46902;52.920;6.536;2023-02-05T09:07:38;6.70;99.90
61016;DHT22;46902;52.920;6.536;2023-02-05T09:10:09;6.70;99.90
61016;DHT22;46902;52.920;6.536;2023-02-05T09:12:35;6.70;99.90
61016;DHT22;46902;52.920;6.536;2023-02-05T09:15:00;6.70;99.90
61016;DHT22;46902;52.920;6.536;2023-02-05T09:17:26;6.70;99.90
61016;DHT22;46902;52.920;6.536;2023-02-05T09:19:52;6.70;99.90
61016;DHT22;46902;52.920;6.536;2023-02-05T09:22:17;6.70;99.90
61016;DHT22;46902;52.920;6.536;2023-02-05T09:24:43;6.80;99.90
61016;DHT22;46902;52.920;6.536;2023-02-05T09:27:08;6.80;99.90
61016;DHT22;46902;52.920;6.536;2023-02-05T09:29:38;6.80;99.90
61016;DHT22;46902;52.920;6.536;2023-02-05T09:32:05;6.80;99.90
61016;DHT22;46902;52.920;6.536;2023-02-05T09:34:31;6.80;99.90
61016;DHT22;46902;52.920;6.536;2023-02-05T09:36:56;6.90;99.90
61016;DHT22;46902;52.920;6.536;2023-02-05T09:39:22;6.80;99.90
61016;DHT22;46902;52.920;6.536;2023-02-05T09:47:15;6.80;99.90
61016;DHT22;46902;52.920;6.536;2023-02-05T09:52:26;6.80;99.90
61016;DHT22;46902;52.920;6.536;2023-02-05T09:55:02;6.90;99.90
61016;DHT22;46902;52.920;6.536;2023-02-05T09:57:32;7.10;99.90
61016;DHT22;46902;52.920;6.536;2023-02-05T09:59:58;7.30;99.90
61016;DHT22;46902;52.920;6.536;2023-02-05T10:02:36;7.60;99.90
61016;DHT22;46902;52.920;6.536;2023-02-05T10:05:11;7.70;99.90
61016;DHT22;46902;52.920;6.536;2023-02-05T10:08:00;7.80;99.90
61016;DHT22;46902;52.920;6.536;2023-02-05T10:10:48;7.80;99.90
61016;DHT22;46902;52.920;6.536;2023-02-05T10:16:24;7.70;99.90
61016;DHT22;46902;52.920;6.536;2023-02-05T10:21:48;7.70;99.90
61016;DHT22;46902;52.920;6.536;2023-02-05T10:24:41;7.80;99.90
61016;DHT22;46902;52.920;6.536;2023-02-05T10:27:23;7.90;99.90
61016;DHT22;46902;52.920;6.536;2023-02-05T10:30:16;8.00;99.90
61016;DHT22;46902;52.920;6.536;2023-02-05T10:33:18;8.20;99.90
61016;DHT22;46902;52.920;6.536;2023-02-05T10:35:57;8.40;99.90
61016;DHT22;46902;52.920;6.536;2023-02-05T10:38:27;8.50;99.90
61016;DHT22;46902;52.920;6.536;2023-02-05T10:46:38;8.30;99.90
61016;DHT22;46902;52.920;6.536;2023-02-05T10:49:12;8.20;99.90
61016;DHT22;46902;52.920;6.536;2023-02-05T10:51:42;8.10;99.90
61016;DHT22;46902;52.920;6.536;2023-02-05T10:54:22;8.10;99.90
61016;DHT22;46902;52.920;6.536;2023-02-05T10:56:50;8.10;99.90
61016;DHT22;46902;52.920;6.536;2023-02-05T10:59:22;8.20;99.90
61016;DHT22;46902;52.920;6.536;2023-02-05T11:01:49;8.30;99.90
61016;DHT22;46902;52.920;6.536;2023-02-05T11:04:21;8.20;99.90
61016;DHT22;46902;52.920;6.536;2023-02-05T11:06:51;8.20;99.90
61016;DHT22;46902;52.920;6.536;2023-02-05T11:11:59;8.30;99.90
61016;DHT22;46902;52.920;6.536;2023-02-05T11:16:57;8.60;99.90
61016;DHT22;46902;52.920;6.536;2023-02-05T11:19:27;8.70;99.90
61016;DHT22;46902;52.920;6.536;2023-02-05T11:21:58;8.90;99.90
61016;DHT22;46902;52.920;6.536;2023-02-05T11:29:41;9.60;99.90
61016;DHT22;46902;52.920;6.536;2023-02-05T11:32:33;9.60;99.90
61016;DHT22;46902;52.920;6.536;2023-02-05T11:35:22;9.60;99.90
61016;DHT22;46902;52.920;6.536;2023-02-05T11:40:29;10.20;99.90
61016;DHT22;46902;52.920;6.536;2023-02-05T11:43:07;10.50;99.90
61016;DHT22;46902;52.920;6.536;2023-02-05T11:45:40;10.80;99.90
61016;DHT22;46902;52.920;6.536;2023-02-05T11:48:41;11.10;99.90
61016;DHT22;46902;52.920;6.536;2023-02-05T11:51:13;11.40;99.90
61016;DHT22;46902;52.920;6.536;2023-02-05T11:54:00;11.20;99.90
61016;DHT22;46902;52.920;6.536;2023-02-05T11:56:27;10.80;99.90
61016;DHT22;46902;52.920;6.536;2023-02-05T11:59:01;10.60;99.90
61016;DHT22;46902;52.920;6.536;2023-02-05T12:01:31;10.20;99.90
61016;DHT22;46902;52.920;6.536;2023-02-05T12:06:46;9.60;99.90
61016;DHT22;46902;52.920;6.536;2023-02-05T12:09:19;9.40;99.90
61016;DHT22;46902;52.920;6.536;2023-02-05T12:12:04;9.20;99.90
61016;DHT22;46902;52.920;6.536;2023-02-05T12:14:45;9.20;99.90
61016;DHT22;46902;52.920;6.536;2023-02-05T12:17:36;9.90;99.90
61016;DHT22;46902;52.920;6.536;2023-02-05T12:20:30;10.80;99.90
61016;DHT22;46902;52.920;6.536;2023-02-05T12:23:21;11.30;99.90
61016;DHT22;46902;52.920;6.536;2023-02-05T12:28:55;11.40;99.90
61016;DHT22;46902;52.920;6.536;2023-02-05T12:31:55;11.50;99.90
61016;DHT22;46902;52.920;6.536;2023-02-05T12:34:30;11.90;99.90
61016;DHT22;46902;52.920;6.536;2023-02-05T12:37:08;12.50;99.90
61016;DHT22;46902;52.920;6.536;2023-02-05T12:39:46;12.30;99.30
61016;DHT22;46902;52.920;6.536;2023-02-05T12:42:35;12.40;99.90
61016;DHT22;46902;52.920;6.536;2023-02-05T12:48:23;13.20;96.50
61016;DHT22;46902;52.920;6.536;2023-02-05T12:53:50;14.10;94.50
61016;DHT22;46902;52.920;6.536;2023-02-05T12:59:04;12.90;94.50
61016;DHT22;46902;52.920;6.536;2023-02-05T13:01:51;12.50;94.80
61016;DHT22;46902;52.920;6.536;2023-02-05T13:04:39;12.80;95.10
61016;DHT22;46902;52.920;6.536;2023-02-05T13:12:41;13.20;93.60
61016;DHT22;46902;52.920;6.536;2023-02-05T13:15:33;13.30;93.70
61016;DHT22;46902;52.920;6.536;2023-02-05T13:18:21;12.80;93.60
61016;DHT22;46902;52.920;6.536;2023-02-05T13:21:00;12.30;94.20
61016;DHT22;46902;52.920;6.536;2023-02-05T13:23:46;11.80;95.30
61016;DHT22;46902;52.920;6.536;2023-02-05T13:26:48;11.30;95.90
61016;DHT22;46902;52.920;6.536;2023-02-05T13:29:42;11.10;96.50
61016;DHT22;46902;52.920;6.536;2023-02-05T13:32:12;10.90;96.60
61016;DHT22;46902;52.920;6.536;2023-02-05T13:34:40;10.70;97.00
61016;DHT22;46902;52.920;6.536;2023-02-05T13:39:58;10.80;97.00
61016;DHT22;46902;52.920;6.536;2023-02-05T13:48:35;10.40;97.40
61016;DHT22;46902;52.920;6.536;2023-02-05T13:59:53;11.30;94.50
61016;DHT22;46902;52.920;6.536;2023-02-05T14:02:33;11.30;94.30
61016;DHT22;46902;52.920;6.536;2023-02-05T14:05:02;12.10;91.30
61016;DHT22;46902;52.920;6.536;2023-02-05T14:07:42;12.90;91.20
61016;DHT22;46902;52.920;6.536;2023-02-05T14:10:26;13.50;90.00
61016;DHT22;46902;52.920;6.536;2023-02-05T14:13:07;13.70;87.30
61016;DHT22;46902;52.920;6.536;2023-02-05T14:15:42;13.80;86.80
61016;DHT22;46902;52.920;6.536;2023-02-05T14:18:44;14.20;86.00
61016;DHT22;46902;52.920;6.536;2023-02-05T14:20:58;14.20;83.20
61016;DHT22;46902;52.920;6.536;2023-02-05T14:26:12;13.00;83.70
61016;DHT22;46902;52.920;6.536;2023-02-05T14:28:49;12.70;86.10
61016;DHT22;46902;52.920;6.536;2023-02-05T14:31:45;12.60;85.50
61016;DHT22;46902;52.920;6.536;2023-02-05T14:36:56;12.90;85.40
61016;DHT22;46902;52.920;6.536;2023-02-05T14:39:28;12.50;86.50
61016;DHT22;46902;52.920;6.536;2023-02-05T14:41:57;12.30;86.10
61016;DHT22;46902;52.920;6.536;2023-02-05T14:52:20;11.20;88.20
61016;DHT22;46902;52.920;6.536;2023-02-05T14:54:51;10.80;89.00
61016;DHT22;46902;52.920;6.536;2023-02-05T15:00:00;10.20;91.10
61016;DHT22;46902;52.920;6.536;2023-02-05T15:02:51;10.00;91.80
61016;DHT22;46902;52.920;6.536;2023-02-05T15:11:26;9.50;93.00
61016;DHT22;46902;52.920;6.536;2023-02-05T15:19:33;9.30;93.80
61016;DHT22;46902;52.920;6.536;2023-02-05T15:22:04;9.20;94.40
61016;DHT22;46902;52.920;6.536;2023-02-05T15:24:32;9.20;94.40
61016;DHT22;46902;52.920;6.536;2023-02-05T15:27:01;9.10;94.60
61016;DHT22;46902;52.920;6.536;2023-02-05T15:29:44;9.10;94.80
61016;DHT22;46902;52.920;6.536;2023-02-05T15:32:18;9.00;94.70
61016;DHT22;46902;52.920;6.536;2023-02-05T15:34:53;8.90;94.60
61016;DHT22;46902;52.920;6.536;2023-02-05T15:37:26;8.80;95.00
61016;DHT22;46902;52.920;6.536;2023-02-05T15:39:57;8.80;95.00
61016;DHT22;46902;52.920;6.536;2023-02-05T15:42:27;8.70;95.30
61016;DHT22;46902;52.920;6.536;2023-02-05T15:44:56;8.70;95.50
61016;DHT22;46902;52.920;6.536;2023-02-05T15:47:23;8.60;95.60
61016;DHT22;46902;52.920;6.536;2023-02-05T15:49:53;8.60;95.80
61016;DHT22;46902;52.920;6.536;2023-02-05T15:52:26;8.60;95.90
61016;DHT22;46902;52.920;6.536;2023-02-05T15:54:55;8.50;96.20
61016;DHT22;46902;52.920;6.536;2023-02-05T15:57:24;8.50;96.50
61016;DHT22;46902;52.920;6.536;2023-02-05T15:59:52;8.50;96.80
61016;DHT22;46902;52.920;6.536;2023-02-05T16:02:21;8.40;97.10
61016;DHT22;46902;52.920;6.536;2023-02-05T16:04:57;8.40;97.30
61016;DHT22;46902;52.920;6.536;2023-02-05T16:07:26;8.30;97.60
61016;DHT22;46902;52.920;6.536;2023-02-05T16:09:57;8.30;97.90
61016;DHT22;46902;52.920;6.536;2023-02-05T16:12:24;8.30;98.10
61016;DHT22;46902;52.920;6.536;2023-02-05T16:14:58;8.20;98.40
61016;DHT22;46902;52.920;6.536;2023-02-05T16:17:32;8.20;98.60
61016;DHT22;46902;52.920;6.536;2023-02-05T16:20:10;8.20;98.80
61016;DHT22;46902;52.920;6.536;2023-02-05T16:22:42;8.10;99.10
61016;DHT22;46902;52.920;6.536;2023-02-05T16:27:57;8.10;99.90
61016;DHT22;46902;52.920;6.536;2023-02-05T16:30:38;8.00;99.90
61016;DHT22;46902;52.920;6.536;2023-02-05T16:35:45;7.90;99.90
61016;DHT22;46902;52.920;6.536;2023-02-05T16:38:17;7.90;99.90
61016;DHT22;46902;52.920;6.536;2023-02-05T16:40:46;7.80;99.90
61016;DHT22;46902;52.920;6.536;2023-02-05T16:43:34;7.80;99.90
61016;DHT22;46902;52.920;6.536;2023-02-05T16:48:37;7.70;99.90
61016;DHT22;46902;52.920;6.536;2023-02-05T16:51:03;7.60;99.90
61016;DHT22;46902;52.920;6.536;2023-02-05T16:53:32;7.60;99.90
61016;DHT22;46902;52.920;6.536;2023-02-05T16:58:35;7.50;99.90
61016;DHT22;46902;52.920;6.536;2023-02-05T17:01:02;7.50;99.90
61016;DHT22;46902;52.920;6.536;2023-02-05T17:03:37;7.40;99.90
61016;DHT22;46902;52.920;6.536;2023-02-05T17:06:10;7.40;99.90
61016;DHT22;46902;52.920;6.536;2023-02-05T17:08:36;7.40;99.90
61016;DHT22;46902;52.920;6.536;2023-02-05T17:11:04;7.30;99.90
61016;DHT22;46902;52.920;6.536;2023-02-05T17:13:41;7.20;99.90
61016;DHT22;46902;52.920;6.536;2023-02-05T17:16:25;7.20;99.90
61016;DHT22;46902;52.920;6.536;2023-02-05T17:18:53;7.20;99.90
61016;DHT22;46902;52.920;6.536;2023-02-05T17:21:27;7.10;99.90
61016;DHT22;46902;52.920;6.536;2023-02-05T17:23:53;7.10;99.90
61016;DHT22;46902;52.920;6.536;2023-02-05T17:26:21;7.10;99.90
61016;DHT22;46902;52.920;6.536;2023-02-05T17:28:53;7.10;99.90
61016;DHT22;46902;52.920;6.536;2023-02-05T17:31:20;7.10;99.90
61016;DHT22;46902;52.920;6.536;2023-02-05T17:33:50;7.10;99.90
61016;DHT22;46902;52.920;6.536;2023-02-05T17:36:16;7.10;99.90
61016;DHT22;46902;52.920;6.536;2023-02-05T17:38:43;7.00;99.90
61016;DHT22;46902;52.920;6.536;2023-02-05T17:41:35;7.00;99.90
61016;DHT22;46902;52.920;6.536;2023-02-05T17:44:20;7.00;99.90
61016;DHT22;46902;52.920;6.536;2023-02-05T17:46:45;6.90;99.90
61016;DHT22;46902;52.920;6.536;2023-02-05T17:49:11;6.90;99.90
61016;DHT22;46902;52.920;6.536;2023-02-05T17:51:37;6.90;99.90
61016;DHT22;46902;52.920;6.536;2023-02-05T17:54:12;6.90;99.90
61016;DHT22;46902;52.920;6.536;2023-02-05T17:56:38;6.90;99.90
61016;DHT22;46902;52.920;6.536;2023-02-05T17:59:13;6.90;99.90
61016;DHT22;46902;52.920;6.536;2023-02-05T18:01:39;6.90;99.90
61016;DHT22;46902;52.920;6.536;2023-02-05T18:04:05;6.80;99.90
61016;DHT22;46902;52.920;6.536;2023-02-05T18:06:30;6.80;99.90
61016;DHT22;46902;52.920;6.536;2023-02-05T18:08:56;6.80;99.90
61016;DHT22;46902;52.920;6.536;2023-02-05T18:11:21;6.80;99.90